Time;durP1;ratioP1;P1;durP2;ratioP2;P2;SDS_P1;SDS_P2;PMS_P1;PMS_P2;Temp;Humidity;BMP_temperature;BMP_pressure;BME280_temperature;BME280_humidity;BME280_pressure;Samples;Min_cycle;Max_cycle;Signal;HPM_P1;HPM_P2
2021/05/25 00:00:55;;;;;;;0.50;0.20;;;10.70;99.90;;;;;;5155505;27;20409;-73
2021/05/25 00:03:21;;;;;;;0.80;0.20;;;10.70;99.90;;;;;;5156136;27;20455;-73
2021/05/25 00:05:49;;;;;;;0.40;0.10;;;10.60;99.90;;;;;;5156113;27;20841;-72
2021/05/25 00:08:16;;;;;;;0.40;0.20;;;10.40;99.90;;;;;;5155894;27;20523;-73
2021/05/25 00:10:42;;;;;;;1.10;0.20;;;10.60;99.90;;;;;;5155516;27;20421;-72
2021/05/25 00:13:10;;;;;;;0.85;0.20;;;10.70;99.90;;;;;;5155380;27;20797;-73
2021/05/25 00:15:37;;;;;;;0.40;0.20;;;10.60;99.90;;;;;;5155782;27;20416;-73
2021/05/25 00:18:04;;;;;;;0.50;0.20;;;10.40;99.90;;;;;;5158212;27;20443;-73
2021/05/25 00:20:31;;;;;;;0.40;0.17;;;10.50;99.90;;;;;;5156919;27;20447;-73
2021/05/25 00:22:59;;;;;;;0.30;0.20;;;10.50;99.90;;;;;;5157548;27;20515;-73
2021/05/25 00:25:25;;;;;;;0.40;0.20;;;10.50;99.90;;;;;;5158119;27;20437;-73
2021/05/25 00:27:54;;;;;;;0.60;0.20;;;10.40;99.90;;;;;;5157782;27;20499;-72
2021/05/25 00:30:22;;;;;;;0.40;0.20;;;10.30;99.90;;;;;;5158363;27;20469;-73
2021/05/25 00:32:49;;;;;;;0.40;0.20;;;10.50;99.90;;;;;;5157409;27;20515;-73
2021/05/25 00:35:16;;;;;;;0.40;0.15;;;10.50;99.90;;;;;;5156977;27;20847;-73
2021/05/25 00:37:43;;;;;;;0.40;0.20;;;10.50;99.90;;;;;;5156975;27;20420;-73
2021/05/25 00:40:14;;;;;;;0.50;0.20;;;10.80;99.90;;;;;;5156813;27;20417;-73
2021/05/25 00:42:44;;;;;;;0.30;0.10;;;10.80;99.90;;;;;;5155721;27;20431;-73
2021/05/25 00:45:13;;;;;;;0.40;0.10;;;11.00;99.90;;;;;;5156367;27;20912;-74
2021/05/25 00:47:40;;;;;;;0.50;0.20;;;11.10;99.90;;;;;;5156340;27;20508;-73
2021/05/25 00:50:11;;;;;;;1.30;0.10;;;10.90;99.90;;;;;;5155828;27;20862;-73
2021/05/25 00:52:40;;;;;;;0.30;0.10;;;10.70;99.90;;;;;;5156150;27;20509;-71
2021/05/25 00:55:08;;;;;;;0.40;0.10;;;10.60;99.90;;;;;;5156557;27;20416;-70
2021/05/25 00:57:36;;;;;;;0.70;0.20;;;10.50;99.90;;;;;;5156575;27;20754;-73
2021/05/25 01:00:06;;;;;;;0.40;0.20;;;10.50;99.90;;;;;;5156460;27;20413;-73
2021/05/25 01:02:33;;;;;;;0.70;0.20;;;10.50;99.90;;;;;;5156755;27;20790;-73
2021/05/25 01:05:00;;;;;;;0.40;0.20;;;10.70;99.90;;;;;;5156683;27;20511;-73
2021/05/25 01:07:27;;;;;;;0.50;0.20;;;10.90;99.90;;;;;;5156372;27;20412;-73
2021/05/25 01:09:55;;;;;;;0.70;0.20;;;11.00;99.90;;;;;;5157173;27;20850;-73
2021/05/25 01:12:23;;;;;;;1.00;0.20;;;10.70;99.90;;;;;;5157606;27;20443;-73
2021/05/25 01:14:54;;;;;;;0.50;0.20;;;10.40;99.90;;;;;;5157491;27;20504;-73
2021/05/25 01:17:21;;;;;;;0.43;0.20;;;10.30;99.90;;;;;;5156978;27;20724;-74
2021/05/25 01:19:47;;;;;;;2.47;0.40;;;10.30;99.90;;;;;;5157050;27;20789;-73
2021/05/25 01:22:14;;;;;;;0.40;0.20;;;10.30;99.90;;;;;;5157067;27;20413;-72
2021/05/25 01:24:41;;;;;;;0.43;0.20;;;10.40;99.90;;;;;;5157144;27;20448;-73
2021/05/25 01:27:09;;;;;;;0.40;0.20;;;10.40;99.90;;;;;;5157989;27;20420;-73
2021/05/25 01:29:36;;;;;;;0.63;0.20;;;10.40;99.90;;;;;;5157952;27;20424;-73
2021/05/25 01:32:04;;;;;;;0.40;0.20;;;10.30;99.90;;;;;;5159189;27;20520;-71
2021/05/25 01:34:30;;;;;;;0.30;0.20;;;10.40;99.90;;;;;;5161388;27;20900;-73
2021/05/25 01:36:56;;;;;;;0.40;0.20;;;10.30;99.90;;;;;;5161079;27;20840;-73
2021/05/25 01:39:24;;;;;;;0.40;0.20;;;10.30;99.90;;;;;;5160353;27;20431;-73
2021/05/25 01:41:52;;;;;;;0.50;0.20;;;10.20;99.90;;;;;;5160526;27;20422;-73
2021/05/25 01:44:18;;;;;;;1.20;0.20;;;10.20;99.90;;;;;;5158570;27;20412;-71
2021/05/25 01:46:45;;;;;;;0.50;0.20;;;10.00;99.90;;;;;;5159229;27;20519;-71
2021/05/25 01:49:13;;;;;;;0.70;0.20;;;9.90;99.90;;;;;;5159594;27;20866;-73
2021/05/25 01:51:45;;;;;;;1.00;0.20;;;9.80;99.90;;;;;;5159845;27;20460;-73
2021/05/25 01:54:12;;;;;;;0.60;0.30;;;10.00;99.90;;;;;;5159620;27;20409;-72
2021/05/25 01:56:39;;;;;;;0.52;0.22;;;9.90;99.90;;;;;;5159429;27;20503;-72
2021/05/25 01:59:05;;;;;;;0.50;0.20;;;9.90;99.90;;;;;;5159794;27;20504;-73
2021/05/25 02:01:32;;;;;;;0.40;0.10;;;9.90;99.90;;;;;;5160474;27;20503;-71
2021/05/25 02:03:58;;;;;;;0.50;0.20;;;9.90;99.90;;;;;;5160577;27;20764;-71
2021/05/25 02:06:25;;;;;;;0.80;0.20;;;9.90;99.90;;;;;;5160266;27;20428;-72
2021/05/25 02:08:51;;;;;;;0.40;0.20;;;10.00;99.90;;;;;;5160777;27;20443;-72
2021/05/25 02:11:18;;;;;;;0.60;0.20;;;10.10;99.90;;;;;;5159108;27;20549;-71
2021/05/25 02:13:45;;;;;;;1.10;0.20;;;10.10;99.90;;;;;;5160689;27;20496;-72
2021/05/25 02:16:14;;;;;;;0.40;0.20;;;9.90;99.90;;;;;;5160490;27;20903;-71
2021/05/25 02:18:44;;;;;;;0.80;0.20;;;9.90;99.90;;;;;;5159850;27;20413;-72
2021/05/25 02:21:12;;;;;;;0.40;0.20;;;9.90;99.90;;;;;;5158966;27;20719;-71
2021/05/25 02:23:39;;;;;;;0.40;0.20;;;9.80;99.90;;;;;;5158961;27;20499;-72
2021/05/25 02:26:06;;;;;;;0.50;0.20;;;9.70;99.90;;;;;;5159101;27;20825;-71
2021/05/25 02:28:32;;;;;;;0.40;0.20;;;9.80;99.90;;;;;;5158656;27;20496;-72
2021/05/25 02:31:00;;;;;;;1.38;0.20;;;9.80;99.90;;;;;;5158862;27;20482;-72
2021/05/25 02:33:27;;;;;;;0.50;0.20;;;9.80;99.90;;;;;;5160133;27;20428;-72
2021/05/25 02:35:56;;;;;;;0.70;0.20;;;9.80;99.90;;;;;;5159544;27;20919;-71
2021/05/25 02:38:25;;;;;;;1.10;0.20;;;10.10;99.90;;;;;;5159917;27;20474;-72
2021/05/25 02:40:53;;;;;;;0.60;0.20;;;10.30;99.90;;;;;;5159367;27;20496;-72
2021/05/25 02:43:21;;;;;;;0.50;0.20;;;10.40;99.90;;;;;;5158715;27;20420;-72
2021/05/25 02:45:48;;;;;;;0.90;0.20;;;10.30;99.90;;;;;;5159627;27;20776;-71
2021/05/25 02:48:15;;;;;;;0.77;0.20;;;10.20;99.90;;;;;;5159730;27;20516;-72
2021/05/25 02:50:43;;;;;;;0.30;0.10;;;10.00;99.90;;;;;;5159156;27;20496;-73
2021/05/25 02:53:10;;;;;;;0.50;0.20;;;9.90;99.90;;;;;;5159629;27;20424;-72
2021/05/25 02:55:38;;;;;;;0.50;0.20;;;9.90;99.90;;;;;;5159771;27;20455;-72
2021/05/25 02:58:06;;;;;;;1.20;0.20;;;10.00;99.90;;;;;;5160013;27;20490;-72
2021/05/25 03:00:36;;;;;;;0.50;0.20;;;9.90;99.90;;;;;;5159399;27;20466;-72
2021/05/25 03:03:03;;;;;;;0.40;0.13;;;9.90;99.90;;;;;;5159805;27;20525;-72
2021/05/25 03:05:31;;;;;;;0.40;0.20;;;9.80;99.90;;;;;;5159609;27;20503;-72
2021/05/25 03:08:00;;;;;;;1.20;0.20;;;9.80;99.90;;;;;;5158006;27;20420;-72
2021/05/25 03:10:29;;;;;;;0.40;0.20;;;9.80;99.90;;;;;;5159309;27;20790;-72
2021/05/25 03:12:56;;;;;;;0.40;0.20;;;9.80;99.90;;;;;;5159279;27;20515;-72
2021/05/25 03:15:25;;;;;;;1.30;0.20;;;9.80;99.90;;;;;;5158107;27;20421;-72
2021/05/25 03:17:52;;;;;;;0.43;0.20;;;9.90;99.90;;;;;;5158668;27;20417;-72
2021/05/25 03:20:19;;;;;;;0.40;0.10;;;9.80;99.90;;;;;;5158689;27;20512;-73
2021/05/25 03:22:46;;;;;;;0.38;0.10;;;9.80;99.90;;;;;;5157836;27;20500;-72
2021/05/25 03:25:14;;;;;;;0.43;0.10;;;10.10;99.90;;;;;;5157161;27;20411;-72
2021/05/25 03:27:41;;;;;;;0.70;0.20;;;10.10;99.90;;;;;;5157872;27;20464;-72
2021/05/25 03:30:11;;;;;;;0.40;0.20;;;10.00;99.90;;;;;;5157718;27;20409;-72
2021/05/25 03:32:37;;;;;;;0.40;0.20;;;10.00;99.90;;;;;;5155921;27;20918;-73
2021/05/25 03:35:06;;;;;;;0.45;0.10;;;10.10;99.90;;;;;;5156823;27;20413;-73
2021/05/25 03:37:32;;;;;;;0.88;0.10;;;9.90;99.90;;;;;;5155011;27;20477;-72
2021/05/25 03:40:00;;;;;;;0.40;0.20;;;9.60;99.90;;;;;;5156468;27;20435;-72
2021/05/25 03:42:26;;;;;;;0.50;0.17;;;9.50;99.90;;;;;;5155990;27;20515;-73
2021/05/25 03:44:53;;;;;;;0.30;0.20;;;9.50;99.90;;;;;;5155469;27;20871;-71
2021/05/25 03:47:20;;;;;;;0.40;0.20;;;9.50;99.90;;;;;;5155964;27;20576;-72
2021/05/25 03:49:47;;;;;;;0.40;0.20;;;9.50;99.90;;;;;;5156532;27;20424;-72
2021/05/25 03:52:13;;;;;;;0.40;0.20;;;9.40;99.90;;;;;;5157897;27;20436;-73
2021/05/25 03:54:46;;;;;;;0.30;0.10;;;9.30;99.90;;;;;;5158072;27;20420;-72
2021/05/25 03:57:24;;;;;;;0.80;0.20;;;9.30;99.90;;;;;;5158085;27;20499;-74
2021/05/25 03:59:52;;;;;;;0.40;0.20;;;9.30;99.90;;;;;;5157583;27;20881;-71
2021/05/25 04:02:18;;;;;;;0.43;0.10;;;9.40;99.90;;;;;;5158046;27;20423;-71
2021/05/25 04:04:45;;;;;;;1.20;0.20;;;9.30;99.90;;;;;;5157666;27;20458;-70
2021/05/25 04:07:11;;;;;;;0.70;0.20;;;9.30;99.90;;;;;;5158049;27;20413;-70
2021/05/25 04:09:38;;;;;;;0.70;0.10;;;9.50;99.90;;;;;;5157841;27;20565;-71
2021/05/25 04:12:05;;;;;;;0.30;0.10;;;9.40;99.90;;;;;;5157790;27;20523;-70
2021/05/25 04:14:33;;;;;;;1.02;0.20;;;9.50;99.90;;;;;;5156664;27;20519;-70
2021/05/25 04:16:59;;;;;;;0.40;0.20;;;9.60;99.90;;;;;;5157529;27;20441;-71
2021/05/25 04:19:26;;;;;;;0.40;0.10;;;9.60;99.90;;;;;;5157539;27;20454;-71
2021/05/25 04:21:52;;;;;;;0.90;0.20;;;9.60;99.90;;;;;;5157763;27;20505;-71
2021/05/25 04:24:19;;;;;;;0.40;0.10;;;9.70;99.90;;;;;;5154583;27;20915;-71
2021/05/25 04:26:45;;;;;;;0.70;0.10;;;9.70;99.90;;;;;;5156069;27;20503;-72
2021/05/25 04:29:11;;;;;;;0.40;0.20;;;9.80;99.90;;;;;;5156037;27;20555;-72
2021/05/25 04:31:39;;;;;;;0.40;0.20;;;9.80;99.90;;;;;;5156070;27;20520;-72
2021/05/25 04:34:05;;;;;;;0.40;0.20;;;9.80;99.90;;;;;;5156009;27;20452;-72
2021/05/25 04:36:31;;;;;;;0.40;0.20;;;9.90;99.90;;;;;;5155719;27;20851;-73
2021/05/25 04:38:58;;;;;;;0.53;0.20;;;9.80;99.90;;;;;;5154700;27;20845;-71
2021/05/25 04:41:24;;;;;;;0.30;0.10;;;9.80;99.90;;;;;;5155524;27;20888;-72
2021/05/25 04:43:50;;;;;;;0.30;0.10;;;9.80;99.90;;;;;;5155615;27;20479;-71
2021/05/25 04:46:17;;;;;;;0.40;0.10;;;9.80;99.90;;;;;;5155784;27;20425;-71
2021/05/25 04:48:44;;;;;;;0.50;0.20;;;9.70;99.90;;;;;;5154519;27;20807;-73
2021/05/25 04:51:10;;;;;;;0.60;0.20;;;9.90;99.90;;;;;;5154360;27;20835;-71
2021/05/25 04:53:37;;;;;;;0.40;0.20;;;9.90;99.90;;;;;;5154314;27;20507;-74
2021/05/25 04:56:05;;;;;;;0.40;0.20;;;10.10;99.90;;;;;;5157185;27;20509;-74
2021/05/25 04:58:31;;;;;;;0.47;0.20;;;10.20;99.90;;;;;;5157826;27;20882;-76
2021/05/25 05:00:58;;;;;;;0.40;0.10;;;10.20;99.90;;;;;;5155996;27;20773;-75
2021/05/25 05:03:26;;;;;;;0.80;0.10;;;10.20;99.90;;;;;;5155454;27;20461;-74
2021/05/25 05:05:54;;;;;;;0.40;0.10;;;10.10;99.90;;;;;;5155083;27;20412;-75
2021/05/25 05:08:21;;;;;;;0.30;0.10;;;10.10;99.90;;;;;;5155031;27;20408;-74
2021/05/25 05:10:47;;;;;;;0.40;0.10;;;10.20;99.90;;;;;;5155817;27;20970;-74
2021/05/25 05:13:14;;;;;;;0.40;0.10;;;10.30;99.90;;;;;;5155307;27;20445;-74
2021/05/25 05:15:40;;;;;;;0.40;0.13;;;10.30;99.90;;;;;;5156963;27;20538;-75
2021/05/25 05:18:06;;;;;;;0.30;0.10;;;10.30;99.90;;;;;;5156074;27;20491;-74
2021/05/25 05:20:33;;;;;;;0.30;0.10;;;10.30;99.90;;;;;;5157009;27;20483;-74
2021/05/25 05:23:00;;;;;;;0.35;0.17;;;10.30;99.90;;;;;;5156563;27;20703;-75
2021/05/25 05:25:27;;;;;;;0.40;0.10;;;10.40;99.90;;;;;;5156388;27;20459;-74
2021/05/25 05:27:53;;;;;;;0.40;0.10;;;10.40;99.90;;;;;;5155757;27;20404;-74
2021/05/25 05:30:20;;;;;;;0.30;0.10;;;10.40;99.90;;;;;;5157037;27;20459;-74
2021/05/25 05:32:46;;;;;;;0.40;0.10;;;10.70;99.90;;;;;;5156173;27;20453;-74
2021/05/25 05:35:13;;;;;;;0.30;0.10;;;10.50;99.90;;;;;;5156839;27;20453;-73
2021/05/25 05:37:39;;;;;;;0.70;0.10;;;10.30;99.90;;;;;;5156474;27;20467;-75
2021/05/25 05:40:08;;;;;;;0.30;0.10;;;10.30;99.90;;;;;;5140110;27;20491;-74
2021/05/25 05:42:35;;;;;;;0.60;0.10;;;10.50;99.90;;;;;;5148000;27;20513;-75
2021/05/25 05:45:01;;;;;;;0.50;0.10;;;10.60;99.90;;;;;;5156921;27;20432;-73
2021/05/25 05:47:28;;;;;;;1.00;0.10;;;10.80;99.90;;;;;;5156769;27;20504;-75
2021/05/25 05:49:54;;;;;;;0.30;0.10;;;10.90;99.90;;;;;;5155942;27;20425;-76
2021/05/25 05:52:20;;;;;;;0.40;0.10;;;10.80;99.90;;;;;;5155624;27;20433;-76
2021/05/25 05:54:47;;;;;;;0.30;0.10;;;10.80;99.90;;;;;;5155725;27;20760;-75
2021/05/25 05:57:15;;;;;;;0.60;0.20;;;10.70;99.90;;;;;;5154955;27;20405;-75
2021/05/25 05:59:41;;;;;;;0.95;0.20;;;10.60;99.90;;;;;;5155096;27;20431;-75
2021/05/25 06:02:08;;;;;;;1.00;0.20;;;10.70;99.90;;;;;;5155142;27;20514;-75
2021/05/25 06:04:34;;;;;;;0.38;0.20;;;10.70;99.90;;;;;;5155377;27;20520;-75
2021/05/25 06:07:01;;;;;;;0.30;0.10;;;10.80;99.90;;;;;;5156290;27;20413;-75
2021/05/25 06:09:27;;;;;;;0.30;0.10;;;10.90;99.90;;;;;;5155594;27;20950;-76
2021/05/25 06:11:53;;;;;;;0.30;0.10;;;10.80;99.90;;;;;;5155428;27;20515;-73
2021/05/25 06:14:21;;;;;;;0.60;0.20;;;11.00;99.90;;;;;;5155423;27;20507;-73
2021/05/25 06:16:47;;;;;;;0.50;0.10;;;11.10;99.90;;;;;;5155311;27;20405;-74
2021/05/25 06:19:13;;;;;;;0.47;0.10;;;11.30;99.90;;;;;;5156246;27;20417;-75
2021/05/25 06:21:40;;;;;;;1.10;0.10;;;11.20;99.90;;;;;;5156150;27;20801;-75
2021/05/25 06:24:07;;;;;;;0.40;0.20;;;11.20;99.90;;;;;;5152301;27;20501;-75
2021/05/25 06:26:34;;;;;;;0.40;0.20;;;11.00;99.90;;;;;;5159218;27;20477;-75
2021/05/25 06:29:00;;;;;;;0.50;0.10;;;11.00;99.90;;;;;;5160504;27;20424;-75
2021/05/25 06:31:27;;;;;;;0.30;0.10;;;11.20;99.90;;;;;;5160384;27;20524;-74
2021/05/25 06:33:54;;;;;;;0.40;0.15;;;11.10;99.90;;;;;;5158168;27;20419;-74
2021/05/25 06:36:20;;;;;;;0.40;0.10;;;11.10;99.90;;;;;;5158297;27;20424;-75
2021/05/25 06:38:47;;;;;;;0.30;0.10;;;11.30;99.90;;;;;;5157090;27;20512;-75
2021/05/25 06:41:13;;;;;;;0.40;0.20;;;11.30;99.90;;;;;;5155939;27;20445;-76
2021/05/25 06:43:40;;;;;;;0.50;0.20;;;11.40;99.90;;;;;;5157674;27;20505;-75
2021/05/25 06:46:07;;;;;;;0.30;0.10;;;11.30;99.90;;;;;;5153582;27;21002;-75
2021/05/25 06:48:34;;;;;;;0.40;0.10;;;11.50;99.90;;;;;;5158066;27;20425;-72
2021/05/25 06:51:06;;;;;;;0.30;0.10;;;11.80;99.90;;;;;;5157598;27;20443;-74
2021/05/25 06:53:32;;;;;;;0.30;0.10;;;11.70;99.90;;;;;;5150282;27;20420;-73
2021/05/25 06:55:59;;;;;;;0.30;0.10;;;11.70;99.90;;;;;;5146149;27;20494;-74
2021/05/25 06:58:25;;;;;;;0.43;0.20;;;11.90;99.90;;;;;;5137326;27;20429;-74
2021/05/25 07:00:52;;;;;;;0.57;0.20;;;12.00;99.90;;;;;;5146590;27;20663;-73
2021/05/25 07:03:18;;;;;;;0.55;0.20;;;12.20;99.90;;;;;;5144194;27;20499;-72
2021/05/25 07:05:47;;;;;;;0.30;0.20;;;12.30;99.90;;;;;;5157420;27;20413;-73
2021/05/25 07:08:13;;;;;;;0.30;0.10;;;12.20;99.90;;;;;;5151690;27;20430;-75
2021/05/25 07:10:40;;;;;;;0.30;0.10;;;12.30;99.90;;;;;;5136531;27;21039;-71
2021/05/25 07:13:11;;;;;;;0.60;0.10;;;12.10;99.90;;;;;;5138305;27;20491;-72
2021/05/25 07:15:37;;;;;;;0.50;0.20;;;12.20;99.90;;;;;;5137193;27;20418;-72
2021/05/25 07:18:09;;;;;;;0.70;0.20;;;12.30;99.90;;;;;;5139997;27;20505;-73
2021/05/25 07:20:35;;;;;;;0.40;0.20;;;12.30;99.90;;;;;;5156011;27;20424;-73
2021/05/25 07:23:07;;;;;;;0.30;0.10;;;12.20;99.90;;;;;;5156771;27;20496;-73
2021/05/25 07:25:34;;;;;;;1.52;0.20;;;12.20;99.90;;;;;;5151984;27;20487;-73
2021/05/25 07:28:00;;;;;;;0.30;0.17;;;12.40;99.90;;;;;;5157571;27;20830;-72
2021/05/25 07:30:27;;;;;;;1.40;0.10;;;12.70;99.90;;;;;;5155084;27;20425;-73
2021/05/25 07:32:53;;;;;;;0.30;0.10;;;12.70;99.90;;;;;;5137794;27;20437;-73
2021/05/25 07:35:20;;;;;;;0.30;0.10;;;12.80;99.90;;;;;;5138756;27;20483;-72
2021/05/25 07:37:47;;;;;;;3.23;0.20;;;13.00;99.90;;;;;;5139607;27;20442;-72
2021/05/25 07:40:17;;;;;;;0.50;0.20;;;12.70;99.90;;;;;;5138454;27;20850;-71
2021/05/25 07:42:44;;;;;;;0.38;0.10;;;12.80;99.90;;;;;;5140612;27;20858;-72
2021/05/25 07:45:12;;;;;;;0.40;0.20;;;13.10;99.90;;;;;;5139769;27;20447;-72
2021/05/25 07:47:38;;;;;;;0.30;0.10;;;13.30;99.90;;;;;;5140317;27;20722;-72
2021/05/25 07:50:13;;;;;;;0.40;0.20;;;13.00;99.90;;;;;;5139909;27;20879;-72
2021/05/25 07:52:40;;;;;;;0.50;0.10;;;13.10;99.90;;;;;;5139476;27;20868;-72
2021/05/25 07:55:08;;;;;;;0.40;0.10;;;13.40;99.90;;;;;;5136404;27;20512;-71
2021/05/25 07:57:35;;;;;;;0.80;0.10;;;13.60;99.90;;;;;;5134913;27;20437;-74
2021/05/25 08:00:02;;;;;;;1.00;0.20;;;13.50;99.90;;;;;;5134741;27;20517;-73
2021/05/25 08:02:28;;;;;;;1.17;0.20;;;13.60;99.90;;;;;;5150152;27;20503;-75
2021/05/25 08:04:54;;;;;;;1.30;0.10;;;13.80;99.90;;;;;;5150424;27;20475;-75
2021/05/25 08:07:21;;;;;;;0.60;0.20;;;13.80;99.90;;;;;;5149082;27;20815;-75
2021/05/25 08:09:47;;;;;;;0.40;0.20;;;13.70;99.90;;;;;;5154638;27;20441;-75
2021/05/25 08:12:14;;;;;;;0.40;0.20;;;13.50;99.90;;;;;;5156927;27;20825;-75
2021/05/25 08:14:41;;;;;;;1.60;0.20;;;13.40;99.90;;;;;;5136426;27;20498;-75
2021/05/25 08:17:09;;;;;;;0.80;0.20;;;13.20;99.90;;;;;;5145395;27;20903;-76
2021/05/25 08:19:38;;;;;;;0.70;0.10;;;13.20;99.90;;;;;;5155321;27;20425;-76
2021/05/25 08:22:04;;;;;;;0.40;0.20;;;13.20;99.90;;;;;;5148531;27;20444;-76
2021/05/25 08:24:32;;;;;;;0.60;0.20;;;13.40;99.90;;;;;;5155546;27;20452;-73
2021/05/25 08:26:58;;;;;;;0.60;0.20;;;13.80;99.90;;;;;;5135504;27;20454;-74
2021/05/25 08:29:25;;;;;;;0.70;0.10;;;14.10;99.90;;;;;;5136896;27;20521;-74
2021/05/25 08:31:52;;;;;;;0.70;0.20;;;14.00;99.90;;;;;;5134758;27;20444;-74
2021/05/25 08:34:19;;;;;;;0.40;0.20;;;13.70;99.90;;;;;;5135836;27;20418;-73
2021/05/25 08:36:45;;;;;;;1.40;0.20;;;13.60;99.90;;;;;;5133292;27;20415;-74
2021/05/25 08:39:11;;;;;;;0.70;0.10;;;13.50;99.90;;;;;;5132720;27;20794;-75
2021/05/25 08:41:38;;;;;;;0.32;0.10;;;13.60;99.90;;;;;;5132312;27;20486;-74
2021/05/25 08:44:05;;;;;;;0.40;0.10;;;13.90;99.90;;;;;;5133855;27;20529;-73
2021/05/25 08:46:33;;;;;;;0.43;0.20;;;14.20;99.90;;;;;;5133463;27;20421;-73
2021/05/25 08:49:02;;;;;;;0.30;0.10;;;14.30;99.90;;;;;;5133740;27;20430;-73
2021/05/25 08:51:28;;;;;;;6.40;0.60;;;14.30;99.90;;;;;;5133594;27;20509;-74
2021/05/25 08:53:55;;;;;;;1.10;0.20;;;14.10;99.90;;;;;;5134368;27;20512;-74
2021/05/25 08:56:22;;;;;;;0.88;0.10;;;14.10;99.90;;;;;;5133237;27;20438;-74
2021/05/25 08:58:48;;;;;;;0.43;0.20;;;14.10;99.90;;;;;;5134559;27;20434;-73
2021/05/25 09:01:14;;;;;;;0.90;0.20;;;14.00;99.90;;;;;;5133689;27;21059;-73
2021/05/25 09:03:58;;;;;;;0.50;0.20;;;14.00;99.90;;;;;;5134539;27;20437;-73
2021/05/25 09:06:44;;;;;;;0.40;0.20;;;14.20;99.90;;;;;;5133672;27;20466;-73
2021/05/25 09:09:11;;;;;;;0.50;0.17;;;14.30;99.90;;;;;;5131421;28;20744;-73
2021/05/25 09:11:57;;;;;;;0.30;0.20;;;14.50;99.90;;;;;;5130703;27;20438;-72
2021/05/25 09:14:24;;;;;;;0.47;0.13;;;14.30;99.90;;;;;;5132660;28;20477;-73
2021/05/25 09:16:50;;;;;;;0.35;0.10;;;14.20;99.90;;;;;;5132724;27;20509;-74
2021/05/25 09:19:17;;;;;;;0.60;0.10;;;14.20;99.90;;;;;;5133842;28;20422;-74
2021/05/25 09:21:44;;;;;;;0.50;0.20;;;14.20;99.90;;;;;;5134662;28;20485;-74
2021/05/25 09:24:11;;;;;;;1.60;0.20;;;14.30;99.90;;;;;;5134788;27;20454;-74
2021/05/25 09:26:44;;;;;;;0.40;0.20;;;14.30;99.90;;;;;;5134905;27;20471;-73
2021/05/25 09:29:12;;;;;;;0.80;0.20;;;14.20;99.90;;;;;;5137570;27;20509;-73
2021/05/25 09:31:39;;;;;;;0.40;0.20;;;14.20;99.90;;;;;;5134762;28;20528;-72
2021/05/25 09:34:10;;;;;;;0.90;0.20;;;13.90;99.90;;;;;;5133790;27;20508;-72
2021/05/25 09:36:57;;;;;;;1.00;0.20;;;13.70;99.90;;;;;;5134788;28;20497;-73
2021/05/25 09:39:24;;;;;;;0.35;0.15;;;13.80;99.90;;;;;;5135608;27;20458;-74
2021/05/25 09:41:58;;;;;;;0.57;0.22;;;13.50;99.90;;;;;;5135239;28;20410;-73
2021/05/25 09:44:25;;;;;;;1.50;0.50;;;13.60;99.90;;;;;;5135938;28;20570;-74
2021/05/25 09:46:52;;;;;;;1.00;0.30;;;13.70;99.90;;;;;;5133825;27;20467;-74
2021/05/25 09:49:19;;;;;;;0.43;0.20;;;13.90;99.90;;;;;;5135063;28;20888;-75
2021/05/25 09:51:45;;;;;;;1.00;0.20;;;13.90;99.90;;;;;;5134011;27;20430;-75
2021/05/25 09:54:20;;;;;;;1.40;0.30;;;13.90;99.90;;;;;;5144983;27;20429;-74
2021/05/25 09:56:57;;;;;;;1.00;0.20;;;13.90;99.90;;;;;;5156634;27;20806;-75
2021/05/25 09:59:31;;;;;;;1.00;0.30;;;14.20;99.90;;;;;;5147008;27;20430;-75
2021/05/25 10:02:14;;;;;;;0.50;0.20;;;14.20;99.90;;;;;;5142604;27;20769;-75
2021/05/25 10:04:58;;;;;;;0.50;0.20;;;14.20;99.90;;;;;;5147323;27;20818;-76
2021/05/25 10:07:27;;;;;;;0.60;0.28;;;14.50;99.90;;;;;;5136217;27;20453;-74
2021/05/25 10:09:58;;;;;;;0.60;0.20;;;14.60;99.90;;;;;;5136597;27;20458;-73
2021/05/25 10:12:28;;;;;;;0.50;0.20;;;14.80;99.90;;;;;;5135246;27;20423;-75
2021/05/25 10:14:54;;;;;;;0.40;0.20;;;15.00;99.90;;;;;;5134643;27;20418;-73
2021/05/25 10:17:32;;;;;;;0.40;0.20;;;15.10;99.90;;;;;;5136867;27;20529;-73
2021/05/25 10:19:59;;;;;;;0.30;0.10;;;15.60;99.90;;;;;;5137279;27;20494;-73
2021/05/25 10:22:26;;;;;;;0.40;0.20;;;15.00;99.90;;;;;;5138635;27;20438;-76
2021/05/25 10:24:54;;;;;;;0.57;0.20;;;15.00;99.90;;;;;;5138137;27;20444;-76
2021/05/25 10:27:22;;;;;;;0.50;0.28;;;14.90;99.90;;;;;;5139441;27;20475;-75
2021/05/25 10:29:48;;;;;;;0.50;0.20;;;15.20;99.90;;;;;;5138485;27;20513;-74
2021/05/25 10:32:28;;;;;;;0.50;0.20;;;15.20;99.90;;;;;;5140392;27;20437;-74
2021/05/25 10:34:55;;;;;;;0.80;0.20;;;15.10;99.90;;;;;;5158001;27;20507;-74
2021/05/25 10:37:22;;;;;;;0.70;0.20;;;14.90;99.90;;;;;;5150937;27;20433;-75
2021/05/25 10:39:55;;;;;;;0.50;0.20;;;14.90;99.90;;;;;;5139712;27;20465;-74
2021/05/25 10:42:30;;;;;;;0.52;0.20;;;15.00;99.90;;;;;;5147716;27;20528;-74
2021/05/25 10:44:59;;;;;;;0.70;0.20;;;15.00;99.90;;;;;;5158313;27;20417;-75
2021/05/25 10:47:28;;;;;;;0.50;0.20;;;14.80;99.90;;;;;;5145888;27;20537;-74
2021/05/25 10:49:57;;;;;;;0.40;0.20;;;14.70;99.90;;;;;;5137492;27;20726;-74
2021/05/25 10:52:23;;;;;;;1.90;0.20;;;14.40;99.90;;;;;;5138153;27;20433;-75
2021/05/25 10:54:56;;;;;;;1.00;0.20;;;14.10;99.90;;;;;;5138691;27;20497;-74
2021/05/25 10:57:51;;;;;;;0.70;0.20;;;13.90;99.90;;;;;;5139656;27;20417;-74
2021/05/25 11:00:21;;;;;;;0.80;0.20;;;14.00;99.90;;;;;;5131740;27;20434;-74
2021/05/25 11:02:53;;;;;;;0.52;0.20;;;14.10;99.90;;;;;;5140855;27;20411;-74
2021/05/25 11:05:44;;;;;;;1.30;0.17;;;14.40;99.90;;;;;;5137471;27;20516;-75
2021/05/25 11:08:47;;;;;;;0.90;0.30;;;14.40;99.90;;;;;;5152216;27;20422;-73
2021/05/25 11:11:28;;;;;;;0.70;0.20;;;14.20;99.90;;;;;;5144046;27;20427;-72
2021/05/25 11:13:56;;;;;;;1.30;0.20;;;14.00;99.90;;;;;;5151451;27;20438;-72
2021/05/25 11:16:35;;;;;;;0.38;0.20;;;13.80;99.90;;;;;;5137684;27;20861;-72
2021/05/25 11:19:22;;;;;;;1.45;0.30;;;13.80;99.90;;;;;;5146878;27;20429;-71
2021/05/25 11:22:06;;;;;;;0.60;0.27;;;13.70;99.90;;;;;;5138217;27;20456;-72
2021/05/25 11:24:35;;;;;;;2.00;0.28;;;13.30;99.90;;;;;;5148500;27;20428;-71
2021/05/25 11:27:05;;;;;;;0.63;0.20;;;13.20;99.90;;;;;;5143798;27;20434;-72
2021/05/25 11:29:34;;;;;;;0.50;0.20;;;12.90;99.90;;;;;;5146310;27;20481;-74
2021/05/25 11:32:06;;;;;;;0.52;0.20;;;13.10;99.90;;;;;;5148183;27;20422;-72
2021/05/25 11:34:32;;;;;;;0.70;0.20;;;13.70;99.90;;;;;;5142349;27;20436;-71
2021/05/25 11:37:02;;;;;;;0.90;0.30;;;14.60;99.90;;;;;;5146309;27;20412;-69
2021/05/25 11:39:30;;;;;;;0.40;0.20;;;15.60;99.90;;;;;;5143945;27;20509;-72
2021/05/25 11:41:57;;;;;;;0.40;0.20;;;16.10;99.90;;;;;;5136191;27;20772;-74
2021/05/25 11:44:33;;;;;;;0.30;0.10;;;16.30;99.90;;;;;;5141459;27;20515;-72
2021/05/25 11:47:05;;;;;;;0.70;0.10;;;15.90;99.90;;;;;;5137097;27;20468;-71
2021/05/25 11:49:34;;;;;;;0.63;0.20;;;14.70;99.90;;;;;;5136763;27;20441;-73
2021/05/25 11:52:17;;;;;;;0.98;0.20;;;14.30;99.90;;;;;;5146712;27;20425;-72
2021/05/25 11:54:45;;;;;;;0.60;0.20;;;14.30;99.90;;;;;;5153372;27;20474;-71
2021/05/25 11:57:24;;;;;;;0.93;0.20;;;14.50;99.90;;;;;;5157615;27;20883;-72
2021/05/25 11:59:51;;;;;;;0.88;0.20;;;15.20;99.90;;;;;;5155268;27;20421;-72
2021/05/25 12:02:29;;;;;;;0.70;0.20;;;15.90;99.90;;;;;;5152161;27;20426;-74
2021/05/25 12:05:18;;;;;;;0.45;0.20;;;16.50;99.90;;;;;;5150353;27;20433;-74
2021/05/25 12:07:47;;;;;;;0.50;0.20;;;16.50;99.90;;;;;;5143376;27;20436;-73
2021/05/25 12:10:16;;;;;;;0.77;0.20;;;16.40;99.90;;;;;;5150835;27;20416;-74
2021/05/25 12:12:44;;;;;;;0.60;0.20;;;16.40;99.90;;;;;;5145897;27;20448;-72
2021/05/25 12:15:18;;;;;;;0.80;0.20;;;16.70;99.90;;;;;;5137000;27;20430;-73
2021/05/25 12:17:47;;;;;;;0.68;0.20;;;16.90;99.90;;;;;;5152291;27;20559;-75
2021/05/25 12:20:18;;;;;;;0.60;0.20;;;17.00;99.90;;;;;;5154146;27;20460;-75
2021/05/25 12:22:46;;;;;;;0.60;0.20;;;17.10;99.90;;;;;;5155464;27;20835;-75
2021/05/25 12:25:26;;;;;;;0.60;0.20;;;17.60;99.90;;;;;;5155216;27;20515;-75
2021/05/25 12:27:55;;;;;;;0.40;0.20;;;17.60;99.90;;;;;;5153821;27;20424;-76
2021/05/25 12:30:24;;;;;;;0.45;0.20;;;17.50;99.90;;;;;;5153825;27;20428;-74
2021/05/25 12:32:51;;;;;;;0.60;0.20;;;17.70;99.90;;;;;;5154215;27;20424;-74
2021/05/25 12:35:23;;;;;;;0.40;0.20;;;17.00;99.80;;;;;;5153414;27;20800;-74
2021/05/25 12:38:03;;;;;;;0.75;0.20;;;17.00;99.90;;;;;;5154579;27;20820;-75
2021/05/25 12:40:30;;;;;;;4.30;0.30;;;17.10;99.90;;;;;;5151718;27;20539;-75
2021/05/25 12:42:56;;;;;;;0.60;0.20;;;17.60;99.90;;;;;;5154177;27;20404;-76
2021/05/25 12:45:29;;;;;;;0.60;0.20;;;17.20;98.20;;;;;;5154885;27;20451;-75
2021/05/25 12:47:57;;;;;;;0.50;0.20;;;17.40;97.70;;;;;;5154593;27;20801;-74
2021/05/25 12:50:31;;;;;;;0.50;0.20;;;17.80;98.20;;;;;;5153875;27;20582;-75
2021/05/25 12:53:09;;;;;;;0.40;0.20;;;17.70;97.60;;;;;;5151777;27;20512;-74
2021/05/25 12:55:39;;;;;;;0.40;0.20;;;17.60;97.10;;;;;;5152590;27;20397;-75